Decoded Metar for KNEW (NEW ORLEANS/LAKE in LA, USA) (IATA:NEW) | Meteo·Mobile Aviation Weather
aviador You're here:

KNEW Decoded Metar

NEW ORLEANS/LAKE in LA, USA
Report Time2018-12-12 00:53:00
UTC Time2018-12-12 01:50:14
Flight Rules vfr VFR
WindCalm
Visibility9999 m
Phenomena:N/A
Clouds:N/A
Expected CloudBase > 4,800 ft AGL from Temp-Dew spread
CeilingNone
Temp09°C (ISA -6)
Dew Point-3°C (43% RH)
AAT6.6°C
QNH1028 hPa
Density Alt-1,145 ft
Elevation10 ft
Report Wrong Elevation
Raw Report
KNEW 120053Z 00000KT 10SM CLR 09/M03 A3035 RMK AO2 SLP270
T00941028=

Extra information for KNEW:More info

Metar Taf Metar & Taf Last 4 Metars F.Rules Stats Wind Profile Meteogram Temp Stats Airport Information Weather charts Add Link Nearby VenuesMetar ALERT Operation Metar Decoded Social comments

AIRNAV info for KNEW